Time;durP1;ratioP1;P1;durP2;ratioP2;P2;SDS_P1;SDS_P2;PMS_P1;PMS_P2;Temp;Humidity;BMP_temperature;BMP_pressure;BME280_temperature;BME280_humidity;BME280_pressure;Samples;Min_cycle;Max_cycle;Signal;HPM_P1;HPM_P2
2021/01/15 00:02:04;;;;;;;2.73;2.63;;;;;;;-6.51;79.50;102589.38;6140576;28;20213;-74
2021/01/15 00:05:10;;;;;;;2.87;2.50;;;;;;;-6.58;79.24;102578.16;6137829;29;20202;-74
2021/01/15 00:08:17;;;;;;;2.30;2.20;;;;;;;-6.58;80.57;102578.16;6136431;29;20712;-73
2021/01/15 00:11:24;;;;;;;2.20;2.10;;;;;;;-6.48;80.02;102574.19;6132392;29;20552;-73
2021/01/15 00:14:27;;;;;;;2.33;2.10;;;;;;;-6.42;79.21;102584.53;6142376;28;20644;-73
2021/01/15 00:17:33;;;;;;;2.27;2.17;;;;;;;-6.52;79.49;102583.19;6135889;28;20582;-76
2021/01/15 00:20:38;;;;;;;2.90;2.70;;;;;;;-6.37;79.38;102582.53;6137616;29;20257;-75
2021/01/15 00:23:41;;;;;;;2.67;2.50;;;;;;;-6.58;79.39;102588.78;6143466;29;20209;-74
2021/01/15 00:26:45;;;;;;;2.30;2.20;;;;;;;-6.50;79.81;102588.47;6133585;28;20591;-74
2021/01/15 00:29:49;;;;;;;3.47;2.60;;;;;;;-6.45;79.73;102579.38;6129564;29;20229;-73
2021/01/15 00:32:52;;;;;;;2.33;2.23;;;;;;;-6.56;79.91;102576.31;6131810;28;20297;-74
2021/01/15 00:35:57;;;;;;;2.20;2.10;;;;;;;-6.43;80.24;102572.19;6142990;28;20314;-72
2021/01/15 00:39:01;;;;;;;2.47;2.37;;;;;;;-6.16;79.06;102574.56;6138232;28;20253;-73
2021/01/15 00:42:09;;;;;;;2.97;2.40;;;;;;;-6.29;79.13;102586.66;6134728;29;20226;-75
2021/01/15 00:45:16;;;;;;;2.33;2.23;;;;;;;-6.31;79.01;102580.53;6145716;28;20658;-73
2021/01/15 00:48:20;;;;;;;2.87;2.50;;;;;;;-6.46;78.39;102572.31;6141999;28;20230;-74
2021/01/15 00:51:24;;;;;;;2.50;2.40;;;;;;;-6.47;79.03;102569.75;6121753;29;20297;-73
2021/01/15 00:54:28;;;;;;;2.37;2.27;;;;;;;-6.66;79.67;102574.97;6119693;29;20250;-75
2021/01/15 00:57:36;;;;;;;3.23;2.50;;;;;;;-6.54;80.36;102579.75;6124476;29;20199;-73
2021/01/15 01:00:39;;;;;;;2.33;2.20;;;;;;;-6.48;79.41;102579.50;6132206;28;20240;-73
2021/01/15 01:03:52;;;;;;;2.37;2.27;;;;;;;-6.56;79.14;102571.00;6121065;29;20210;-74
2021/01/15 01:06:57;;;;;;;4.87;2.10;;;;;;;-6.38;78.79;102570.19;6138916;28;20206;-75
2021/01/15 01:10:04;;;;;;;2.07;2.07;;;;;;;-6.32;78.80;102573.50;6124621;29;20339;-75
2021/01/15 01:13:07;;;;;;;2.40;2.30;;;;;;;-6.33;78.35;102582.41;6127778;28;20217;-75
2021/01/15 01:16:13;;;;;;;2.70;2.50;;;;;;;-6.24;78.60;102582.00;6146198;28;20208;-74
2021/01/15 01:19:17;;;;;;;2.30;2.20;;;;;;;-6.52;78.56;102561.94;6148936;28;20218;-74
2021/01/15 01:22:21;;;;;;;3.53;2.40;;;;;;;-6.58;79.15;102588.78;6137277;28;20286;-74
2021/01/15 01:25:24;;;;;;;2.00;2.00;;;;;;;-6.46;79.16;102582.06;6137779;29;20224;-77
2021/01/15 01:28:27;;;;;;;2.33;2.20;;;;;;;-6.41;78.75;102590.69;6129043;29;20211;-73
2021/01/15 01:31:30;;;;;;;2.40;2.30;;;;;;;-6.53;78.61;102580.63;6139625;28;20265;-74
2021/01/15 01:34:34;;;;;;;2.57;2.57;;;;;;;-6.55;79.73;102588.63;6146481;28;20218;-75
2021/01/15 01:37:38;;;;;;;2.40;2.27;;;;;;;-6.48;78.60;102590.13;6132568;28;20661;-73
2021/01/15 01:40:46;;;;;;;2.40;2.27;;;;;;;-6.47;79.97;102597.13;6130216;29;20631;-74
2021/01/15 01:43:49;;;;;;;2.50;2.40;;;;;;;-6.62;78.86;102600.44;6151957;28;20212;-76
2021/01/15 01:46:54;;;;;;;2.00;2.00;;;;;;;-6.63;79.43;102590.78;6134652;28;20242;-76
2021/01/15 01:49:57;;;;;;;2.97;2.10;;;;;;;-6.71;79.90;102592.88;6134542;29;20673;-74
2021/01/15 01:53:04;;;;;;;2.20;2.10;;;;;;;-6.84;79.75;102591.66;6141072;29;20209;-73
2021/01/15 01:56:09;;;;;;;1.80;1.80;;;;;;;-6.85;79.50;102599.66;6132079;28;20312;-75
2021/01/15 01:59:14;;;;;;;2.10;2.10;;;;;;;-6.76;80.15;102583.38;6133760;29;20284;-73
2021/01/15 02:02:17;;;;;;;2.23;2.13;;;;;;;-6.67;79.31;102601.56;6137037;28;20209;-73
2021/01/15 02:05:20;;;;;;;2.30;2.30;;;;;;;-6.60;78.81;102587.97;6145385;29;20248;-75
2021/01/15 02:08:28;;;;;;;2.17;2.17;;;;;;;-6.57;78.48;102589.63;6145905;29;20217;-73
2021/01/15 02:11:37;;;;;;;2.30;2.20;;;;;;;-6.85;78.06;102584.63;6141693;29;20188;-73
2021/01/15 02:14:49;;;;;;;2.10;2.10;;;;;;;-6.75;78.48;102585.97;6145764;28;20219;-74
2021/01/15 02:17:59;;;;;;;2.23;2.13;;;;;;;-6.87;78.22;102594.44;6133211;28;20209;-74
2021/01/15 02:21:37;;;;;;;2.17;2.17;;;;;;;-6.93;78.42;102592.03;6141351;29;20206;-73
2021/01/15 02:25:21;;;;;;;1.77;1.77;;;;;;;-6.89;78.71;102587.47;6130673;28;20194;-78
2021/01/15 02:28:46;;;;;;;2.17;2.07;;;;;;;-6.98;79.31;102601.97;6141848;29;20212;-72
2021/01/15 02:32:23;;;;;;;2.17;2.10;;;;;;;-7.03;78.46;102595.97;6138315;28;20209;-74
2021/01/15 02:35:49;;;;;;;1.90;1.90;;;;;;;-6.99;77.57;102597.59;6128027;29;20202;-72
2021/01/15 02:38:57;;;;;;;1.73;1.73;;;;;;;-6.93;77.02;102592.03;6132199;28;20237;-74
2021/01/15 02:42:00;;;;;;;2.07;2.07;;;;;;;-7.11;79.19;102598.94;6132151;28;20198;-76
2021/01/15 02:45:08;;;;;;;2.00;2.00;;;;;;;-7.02;78.44;102597.72;6130374;28;20726;-73
2021/01/15 02:48:16;;;;;;;1.90;1.90;;;;;;;-6.85;77.54;102584.63;6143645;28;20635;-73
2021/01/15 02:51:20;;;;;;;1.90;1.87;;;;;;;-6.99;78.57;102589.66;6141508;28;20239;-73
2021/01/15 02:54:23;;;;;;;2.17;2.13;;;;;;;-7.09;77.67;102596.25;6121518;29;20516;-72
2021/01/15 02:57:26;;;;;;;2.27;2.17;;;;;;;-7.10;78.29;102599.81;6122727;29;20193;-72
2021/01/15 03:00:30;;;;;;;2.37;2.27;;;;;;;-7.13;78.03;102595.50;6133537;28;20197;-77
2021/01/15 03:03:44;;;;;;;5.60;1.83;;;;;;;-7.26;77.24;102580.13;6151575;28;20191;-74
2021/01/15 03:06:51;;;;;;;2.30;2.30;;;;;;;-7.42;78.34;102579.03;6121111;29;20336;-72
2021/01/15 03:09:59;;;;;;;1.93;1.90;;;;;;;-7.38;77.79;102588.56;6131954;29;20229;-74
2021/01/15 03:13:05;;;;;;;2.33;2.07;;;;;;;-7.43;77.64;102595.84;6138297;29;20194;-74
2021/01/15 03:16:12;;;;;;;2.30;2.20;;;;;;;-7.17;76.96;102601.00;6142342;28;20214;-73
2021/01/15 03:19:18;;;;;;;1.87;1.87;;;;;;;-7.35;76.57;102593.75;6140365;28;20231;-74
2021/01/15 03:22:23;;;;;;;1.83;1.83;;;;;;;-7.44;77.03;102594.09;6130070;29;20202;-73
2021/01/15 03:25:27;;;;;;;2.43;2.20;;;;;;;-7.35;76.91;102593.75;6138670;29;20563;-73
2021/01/15 03:28:30;;;;;;;1.83;1.73;;;;;;;-7.49;77.64;102591.63;6134211;29;20226;-75
2021/01/15 03:31:33;;;;;;;2.37;2.17;;;;;;;-7.29;77.17;102593.53;6113099;28;20205;-73
2021/01/15 03:34:38;;;;;;;1.90;1.90;;;;;;;-7.16;77.80;102584.13;6141747;29;20212;-72
2021/01/15 03:37:41;;;;;;;1.97;1.97;;;;;;;-7.06;76.54;102585.53;6134355;29;20229;-73
2021/01/15 03:40:46;;;;;;;2.40;1.80;;;;;;;-7.17;76.96;102582.44;6143830;28;20227;-73
2021/01/15 03:43:49;;;;;;;4.17;2.00;;;;;;;-7.28;77.45;102595.25;6143525;28;20204;-74
2021/01/15 03:46:53;;;;;;;2.03;1.90;;;;;;;-7.15;77.88;102597.34;6136624;29;20253;-73
2021/01/15 03:49:58;;;;;;;2.00;2.00;;;;;;;-7.21;77.89;102602.03;6142762;28;20214;-74
2021/01/15 03:53:01;;;;;;;1.70;1.70;;;;;;;-7.15;78.33;102601.78;6134225;28;20198;-73
2021/01/15 03:56:05;;;;;;;1.80;1.80;;;;;;;-7.18;78.09;102607.22;6127978;28;20199;-74
2021/01/15 03:59:08;;;;;;;1.73;1.73;;;;;;;-7.01;77.58;102612.72;6142606;28;20363;-75
2021/01/15 04:02:11;;;;;;;2.00;2.00;;;;;;;-7.38;78.10;102604.47;6145633;28;20193;-74
2021/01/15 04:05:18;;;;;;;2.00;1.90;;;;;;;-7.26;77.05;102590.72;6128621;28;20202;-74
2021/01/15 04:08:22;;;;;;;2.30;1.80;;;;;;;-7.22;77.40;102600.31;6127713;29;20776;-73
2021/01/15 04:11:25;;;;;;;2.03;2.03;;;;;;;-7.17;76.97;102603.66;6137809;28;20199;-76
2021/01/15 04:14:29;;;;;;;1.90;1.90;;;;;;;-7.35;77.16;102593.75;6153701;28;20209;-76
2021/01/15 04:17:33;;;;;;;1.77;1.77;;;;;;;-7.31;77.63;102590.06;6144112;28;20364;-73
2021/01/15 04:20:37;;;;;;;3.97;2.10;;;;;;;-7.33;78.33;102597.22;6135830;28;20198;-74
2021/01/15 04:23:40;;;;;;;2.10;2.10;;;;;;;-7.33;78.68;102597.22;6136755;28;20526;-73
2021/01/15 04:26:44;;;;;;;1.47;1.47;;;;;;;-7.20;77.78;102598.47;6133612;29;20197;-73
2021/01/15 04:29:47;;;;;;;2.20;2.10;;;;;;;-7.10;77.77;102591.84;6134757;29;20238;-72
2021/01/15 04:32:50;;;;;;;2.20;2.10;;;;;;;-7.13;77.60;102605.25;6141791;28;20199;-73
2021/01/15 04:35:54;;;;;;;2.30;2.20;;;;;;;-7.17;77.75;102598.34;6146068;28;20197;-73
2021/01/15 04:38:58;;;;;;;2.10;2.10;;;;;;;-7.04;77.44;102602.25;6130893;28;20735;-73
2021/01/15 04:42:02;;;;;;;1.70;1.70;;;;;;;-7.22;77.79;102605.63;6135776;28;20288;-75
2021/01/15 04:45:07;;;;;;;2.10;2.00;;;;;;;-7.31;77.71;102596.22;6137818;28;20212;-74
2021/01/15 04:48:17;;;;;;;3.60;2.43;;;;;;;-7.41;77.35;102609.91;6134201;28;20333;-76
2021/01/15 04:51:23;;;;;;;1.97;1.97;;;;;;;-7.31;77.78;102600.66;6138094;29;20209;-73
2021/01/15 04:54:37;;;;;;;2.47;2.30;;;;;;;-7.38;77.91;102602.72;6143682;28;20668;-73
2021/01/15 04:57:42;;;;;;;2.03;1.90;;;;;;;-7.70;78.96;102614.53;6136773;29;20242;-73
2021/01/15 05:00:46;;;;;;;2.30;2.30;;;;;;;-7.49;78.55;102614.63;6136066;29;20305;-73
2021/01/15 05:03:52;;;;;;;2.23;2.13;;;;;;;-7.62;78.39;102617.75;6150511;28;20213;-72
2021/01/15 05:06:57;;;;;;;2.43;2.37;;;;;;;-7.67;79.02;102616.19;6128662;29;20207;-76
2021/01/15 05:10:07;;;;;;;2.53;2.30;;;;;;;-7.56;78.60;102611.38;6133767;28;20751;-73
2021/01/15 05:13:12;;;;;;;2.50;2.13;;;;;;;-7.45;78.00;102601.22;6146607;28;20216;-74
2021/01/15 05:16:19;;;;;;;3.13;2.13;;;;;;;-7.38;77.81;102599.19;6154702;28;20200;-74
2021/01/15 05:19:23;;;;;;;2.23;2.23;;;;;;;-7.47;78.62;102612.81;6136348;29;20593;-74
2021/01/15 05:22:27;;;;;;;2.10;2.10;;;;;;;-7.51;78.14;102613.84;6140619;29;20284;-73
2021/01/15 05:25:32;;;;;;;2.37;2.17;;;;;;;-7.39;78.10;102608.06;6128039;29;20578;-73
2021/01/15 05:28:46;;;;;;;2.30;2.20;;;;;;;-7.75;78.66;102574.09;6126356;29;20269;-72
2021/01/15 05:31:50;;;;;;;2.30;2.20;;;;;;;-7.49;79.60;102590.78;6134536;29;20208;-75
2021/01/15 05:34:54;;;;;;;2.90;2.20;;;;;;;-7.25;78.59;102597.78;6146738;28;20796;-74
2021/01/15 05:37:59;;;;;;;2.60;2.40;;;;;;;-7.57;79.37;102603.50;6133626;29;20225;-71
2021/01/15 05:41:03;;;;;;;2.50;2.40;;;;;;;-7.60;78.92;102611.56;6130692;29;20702;-74
2021/01/15 05:44:07;;;;;;;2.20;2.10;;;;;;;-7.60;78.35;102608.91;6139565;29;20203;-73
2021/01/15 05:47:11;;;;;;;2.30;2.20;;;;;;;-7.52;78.78;102601.53;6132246;28;20286;-81
2021/01/15 05:50:15;;;;;;;3.13;2.50;;;;;;;-7.68;78.96;102594.13;6134031;28;20637;-76
2021/01/15 05:53:19;;;;;;;2.97;2.33;;;;;;;-7.65;79.36;102596.66;6141085;28;20213;-74
2021/01/15 05:56:24;;;;;;;2.53;2.43;;;;;;;-7.92;79.76;102592.41;6134724;28;20749;-74
2021/01/15 05:59:28;;;;;;;2.50;2.40;;;;;;;-7.91;78.86;102594.13;6140991;29;20631;-74
2021/01/15 06:02:33;;;;;;;2.30;2.10;;;;;;;-7.62;78.56;102591.25;6125635;29;20205;-74
2021/01/15 06:05:38;;;;;;;2.30;2.10;;;;;;;-7.78;79.58;102589.25;6128097;29;20256;-74
2021/01/15 06:08:43;;;;;;;2.50;2.40;;;;;;;-7.58;78.58;102593.78;6135936;28;20239;-74
2021/01/15 06:11:48;;;;;;;2.10;2.00;;;;;;;-7.56;78.43;102599.91;6138475;28;20198;-78
2021/01/15 06:14:57;;;;;;;2.50;2.40;;;;;;;-7.73;78.39;102593.44;6130424;29;20209;-74
2021/01/15 06:18:01;;;;;;;3.80;2.00;;;;;;;-7.75;79.00;102583.81;6139890;28;20197;-74
2021/01/15 06:21:09;;;;;;;2.53;2.43;;;;;;;-7.80;79.85;102591.94;6136578;29;20565;-74
2021/01/15 06:24:21;;;;;;;2.53;2.33;;;;;;;-7.83;79.26;102592.06;6130228;28;20200;-74
2021/01/15 06:27:33;;;;;;;2.20;2.20;;;;;;;-7.84;79.45;102595.66;6153627;28;20193;-73
2021/01/15 06:30:37;;;;;;;2.60;2.20;;;;;;;-7.53;78.58;102597.13;6145516;28;20197;-73
2021/01/15 06:34:00;;;;;;;2.33;2.23;;;;;;;-7.74;79.14;102590.84;6134612;29;20266;-74
2021/01/15 06:37:05;;;;;;;2.70;2.50;;;;;;;-7.71;79.50;102596.06;6136070;29;20307;-77
2021/01/15 06:40:15;;;;;;;2.33;2.27;;;;;;;-7.58;79.67;102596.44;6140914;28;20239;-74
2021/01/15 06:43:25;;;;;;;2.20;2.20;;;;;;;-7.68;81.02;102601.25;6131731;28;20203;-74
2021/01/15 06:46:34;;;;;;;2.37;2.20;;;;;;;-7.32;79.27;102598.97;6140440;29;20223;-75
2021/01/15 06:49:44;;;;;;;2.33;2.33;;;;;;;-7.33;79.28;102591.91;6125402;29;20205;-77
2021/01/15 06:52:50;;;;;;;2.73;2.50;;;;;;;-7.12;79.15;102591.06;6133255;29;20340;-74
2021/01/15 06:55:56;;;;;;;3.00;2.60;;;;;;;-7.23;79.08;102587.97;6130049;28;20202;-75
2021/01/15 06:59:12;;;;;;;6.27;2.40;;;;;;;-7.02;79.70;102597.72;6131216;29;20675;-75
2021/01/15 07:02:48;;;;;;;2.77;2.57;;;;;;;-7.02;78.57;102603.03;6127756;29;20190;-74
2021/01/15 07:05:54;;;;;;;2.17;2.07;;;;;;;-6.86;79.38;102593.53;6139024;29;20532;-75
2021/01/15 07:08:59;;;;;;;2.53;2.47;;;;;;;-7.10;79.66;102595.38;6121624;29;20641;-75
2021/01/15 07:12:08;;;;;;;3.80;2.50;;;;;;;-7.10;80.19;102586.56;6120845;29;20284;-76
2021/01/15 07:15:14;;;;;;;2.50;2.40;;;;;;;-7.07;79.80;102597.03;6138669;28;20573;-73
2021/01/15 07:18:30;;;;;;;2.53;2.40;;;;;;;-7.23;80.78;102606.53;6148042;28;20655;-77
2021/01/15 07:21:35;;;;;;;2.70;2.60;;;;;;;-7.08;81.08;102608.56;6158826;28;20324;-74
2021/01/15 07:24:40;;;;;;;4.00;3.07;;;;;;;-7.25;81.58;102595.13;6144252;28;20205;-76
2021/01/15 07:27:45;;;;;;;3.40;2.90;;;;;;;-7.17;81.62;102604.53;6152343;28;20191;-74
2021/01/15 07:30:49;;;;;;;2.57;2.47;;;;;;;-7.03;81.38;102604.81;6125490;28;20206;-75
2021/01/15 07:33:57;;;;;;;2.70;2.50;;;;;;;-6.85;81.17;102600.53;6131145;29;20198;-77
2021/01/15 07:37:17;;;;;;;2.50;2.30;;;;;;;-6.77;80.30;102598.44;6139582;28;20237;-74
2021/01/15 07:40:21;;;;;;;2.30;2.30;;;;;;;-6.66;79.85;102611.25;6139226;28;20291;-74
2021/01/15 07:43:29;;;;;;;2.67;2.57;;;;;;;-6.86;80.56;102614.75;6147114;29;20208;-74
2021/01/15 07:46:47;;;;;;;2.60;2.40;;;;;;;-6.91;79.95;102624.69;6141411;29;20210;-74
2021/01/15 07:49:50;;;;;;;2.90;2.80;;;;;;;-6.86;80.97;102616.53;6140780;29;20230;-80
2021/01/15 07:53:04;;;;;;;3.77;2.57;;;;;;;-6.83;80.89;102619.06;6134494;29;20205;-74
2021/01/15 07:56:07;;;;;;;2.90;2.67;;;;;;;-6.62;79.96;102619.03;6135372;29;20217;-75
2021/01/15 07:59:28;;;;;;;2.53;2.30;;;;;;;-6.73;80.79;102615.97;6135434;29;20576;-76
2021/01/15 08:02:31;;;;;;;2.50;2.37;;;;;;;-6.75;80.69;102619.63;6133798;29;20206;-75
2021/01/15 08:05:35;;;;;;;2.80;2.70;;;;;;;-6.77;79.91;102630.28;6145351;28;20269;-76
2021/01/15 08:08:57;;;;;;;2.40;2.30;;;;;;;-6.66;79.54;102633.38;6140285;29;20652;-74
2021/01/15 08:12:01;;;;;;;2.70;2.60;;;;;;;-6.86;80.44;102628.03;6144712;28;20203;-75
2021/01/15 08:15:27;;;;;;;2.73;2.53;;;;;;;-6.54;80.01;102632.84;6141906;28;20244;-76
2021/01/15 08:18:31;;;;;;;3.20;2.70;;;;;;;-6.68;80.22;102656.47;6137924;29;20200;-73
2021/01/15 08:21:35;;;;;;;2.77;2.67;;;;;;;-6.94;81.10;102632.78;6133380;28;20214;-74
2021/01/15 08:24:45;;;;;;;2.90;2.57;;;;;;;-7.06;80.22;102622.66;6143286;28;20211;-74
2021/01/15 08:27:48;;;;;;;4.00;3.03;;;;;;;-6.88;80.99;102635.16;6145024;29;20659;-75
2021/01/15 08:31:01;;;;;;;2.67;2.53;;;;;;;-6.71;80.42;102635.34;6140997;28;20202;-74
2021/01/15 08:34:09;;;;;;;2.77;2.67;;;;;;;-6.51;79.51;102638.03;6136220;29;20193;-76
2021/01/15 08:37:16;;;;;;;3.03;2.87;;;;;;;-6.75;79.70;102639.03;6134965;29;20311;-77
2021/01/15 08:40:25;;;;;;;2.73;2.70;;;;;;;-6.62;79.94;102637.63;6131438;29;20413;-75
2021/01/15 08:43:30;;;;;;;3.50;2.30;;;;;;;-6.60;79.21;102642.88;6131283;29;20206;-74
2021/01/15 08:46:37;;;;;;;3.63;2.67;;;;;;;-6.63;79.73;102643.88;6138951;28;20206;-74
2021/01/15 08:49:51;;;;;;;2.77;2.57;;;;;;;-6.59;79.34;102642.81;6130513;28;20604;-75
2021/01/15 08:52:56;;;;;;;2.40;2.30;;;;;;;-6.75;78.94;102644.34;6134673;29;20517;-74
2021/01/15 08:55:59;;;;;;;2.53;2.33;;;;;;;-6.91;78.87;102653.88;6144442;28;20202;-76
2021/01/15 08:59:05;;;;;;;4.47;2.33;;;;;;;-6.92;80.24;102657.44;6135206;28;20698;-75
2021/01/15 09:02:11;;;;;;;2.50;2.40;;;;;;;-6.89;79.25;102646.72;6139574;29;20273;-75
2021/01/15 09:05:20;;;;;;;2.90;2.70;;;;;;;-6.73;78.00;102642.53;6141073;29;20224;-74
2021/01/15 09:08:25;;;;;;;2.50;2.40;;;;;;;-6.78;78.58;102649.81;6136087;28;20194;-75
2021/01/15 09:11:30;;;;;;;2.50;2.40;;;;;;;-7.00;77.77;102654.25;6148262;28;20264;-76
2021/01/15 09:14:35;;;;;;;2.83;2.70;;;;;;;-6.93;78.51;102650.41;6149261;28;20335;-75
2021/01/15 09:17:39;;;;;;;2.30;2.20;;;;;;;-6.70;77.33;102653.00;6135608;29;20202;-74
2021/01/15 09:20:43;;;;;;;6.30;2.17;;;;;;;-6.89;76.94;102652.03;6143768;28;20249;-77
2021/01/15 09:23:46;;;;;;;2.60;2.50;;;;;;;-7.04;76.97;102663.25;6137220;29;20200;-73
2021/01/15 09:26:55;;;;;;;2.07;2.00;;;;;;;-6.89;76.99;102656.47;6145367;29;20210;-75
2021/01/15 09:29:59;;;;;;;2.93;2.70;;;;;;;-6.81;77.45;102662.34;6141756;29;20353;-76
2021/01/15 09:33:04;;;;;;;2.80;2.70;;;;;;;-6.56;76.28;102669.25;6146050;28;20644;-75
2021/01/15 09:36:09;;;;;;;3.17;2.73;;;;;;;-6.61;76.78;102668.56;6142845;28;20195;-75
2021/01/15 09:39:14;;;;;;;5.87;2.67;;;;;;;-6.65;77.05;102671.41;6150656;28;20304;-77
2021/01/15 09:42:17;;;;;;;2.40;2.30;;;;;;;-6.31;75.40;102660.22;6165925;28;20217;-75
2021/01/15 09:45:20;;;;;;;3.10;2.90;;;;;;;-6.49;75.46;102662.72;6164628;28;20205;-74
2021/01/15 09:48:24;;;;;;;4.37;2.70;;;;;;;-6.46;75.15;102667.06;6164961;28;20209;-76
2021/01/15 09:51:28;;;;;;;2.60;2.50;;;;;;;-6.76;75.31;102674.50;6164651;28;20237;-75
2021/01/15 09:54:31;;;;;;;2.37;2.17;;;;;;;-7.03;76.05;102680.88;6165078;28;20289;-74
2021/01/15 09:57:43;;;;;;;2.87;2.77;;;;;;;-6.76;76.18;102673.63;6164254;28;20237;-74
2021/01/15 10:00:46;;;;;;;3.47;3.13;;;;;;;-6.75;76.08;102676.22;6166366;28;20264;-73
2021/01/15 10:03:52;;;;;;;3.07;2.43;;;;;;;-6.47;74.61;102681.28;6165633;28;20248;-75
2021/01/15 10:06:55;;;;;;;31.73;11.47;;;;;;;-6.76;75.47;102674.50;6161396;28;20205;-76
2021/01/15 10:09:59;;;;;;;17.77;7.63;;;;;;;-6.72;74.95;102681.41;6159334;28;20218;-75
2021/01/15 10:13:02;;;;;;;10.47;5.33;;;;;;;-6.66;75.68;102675.84;6151323;28;20578;-75
2021/01/15 10:16:06;;;;;;;3.63;3.43;;;;;;;-6.48;74.80;102675.09;6155914;28;20663;-75
2021/01/15 10:19:10;;;;;;;7.97;5.40;;;;;;;-6.41;74.93;102671.25;6168320;28;20200;-75
2021/01/15 10:22:14;;;;;;;9.83;6.60;;;;;;;-6.60;75.53;102675.56;6163132;28;20306;-74
2021/01/15 10:25:17;;;;;;;3.57;3.23;;;;;;;-6.75;75.99;102676.22;6165697;28;20287;-74
2021/01/15 10:28:21;;;;;;;3.50;3.30;;;;;;;-6.73;74.86;102690.31;6166975;28;20336;-74
2021/01/15 10:31:26;;;;;;;5.37;3.07;;;;;;;-6.62;74.07;102669.47;6156606;28;20364;-79
2021/01/15 10:34:30;;;;;;;4.03;3.80;;;;;;;-6.65;74.30;102677.56;6141735;28;20206;-77
2021/01/15 10:37:35;;;;;;;2.83;2.63;;;;;;;-6.51;74.06;102675.22;6160095;28;20586;-79
2021/01/15 10:40:38;;;;;;;2.93;2.77;;;;;;;-6.60;74.35;102670.28;6163944;28;20401;-73
2021/01/15 10:43:42;;;;;;;3.23;3.03;;;;;;;-6.42;73.86;102669.50;6163626;28;20555;-75
2021/01/15 10:46:49;;;;;;;3.33;3.13;;;;;;;-6.56;74.80;102671.88;6162955;28;20640;-74
2021/01/15 10:49:53;;;;;;;9.33;5.00;;;;;;;-6.31;74.24;102655.78;6160422;28;20213;-75
2021/01/15 10:52:56;;;;;;;3.20;3.00;;;;;;;-6.36;75.56;102648.00;6155959;28;20320;-75
2021/01/15 10:55:59;;;;;;;3.30;3.10;;;;;;;-5.88;75.92;102649.50;6161807;28;20271;-74
2021/01/15 10:59:03;;;;;;;2.93;2.73;;;;;;;-5.93;76.06;102646.16;6160439;28;20277;-76
2021/01/15 11:02:07;;;;;;;3.17;2.93;;;;;;;-5.50;75.86;102640.59;6161797;28;20285;-75
2021/01/15 11:05:13;;;;;;;2.70;2.60;;;;;;;-5.62;75.83;102637.66;6155993;28;20208;-73
2021/01/15 11:08:16;;;;;;;2.57;2.47;;;;;;;-5.79;75.01;102638.41;6168201;28;20228;-74
2021/01/15 11:11:19;;;;;;;2.70;2.50;;;;;;;-5.92;76.17;102631.94;6163038;28;20217;-74
2021/01/15 11:14:22;;;;;;;2.90;2.80;;;;;;;-5.79;76.84;102639.25;6182093;28;20523;-75
2021/01/15 11:17:26;;;;;;;2.97;2.73;;;;;;;-5.51;76.32;102633.53;6170343;28;20619;-74
2021/01/15 11:20:30;;;;;;;2.80;2.70;;;;;;;-6.01;77.01;102629.69;6163150;28;20228;-76
2021/01/15 11:23:33;;;;;;;3.27;3.07;;;;;;;-5.89;76.20;102631.78;6171673;28;20217;-74
2021/01/15 11:26:36;;;;;;;3.93;3.00;;;;;;;-6.05;76.29;102636.06;6166930;28;20204;-74
2021/01/15 11:29:40;;;;;;;6.07;3.50;;;;;;;-6.18;77.72;102634.84;6163301;28;20198;-74
2021/01/15 11:32:44;;;;;;;3.20;3.00;;;;;;;-6.27;78.00;102633.50;6163254;28;20201;-76
2021/01/15 11:35:48;;;;;;;3.10;2.80;;;;;;;-6.38;78.38;102635.72;6168013;28;20293;-74
2021/01/15 11:38:51;;;;;;;6.63;3.53;;;;;;;-6.20;78.05;102642.03;6163559;28;20234;-74
2021/01/15 11:41:55;;;;;;;4.80;3.87;;;;;;;-6.20;77.11;102642.03;6165240;28;20263;-73
2021/01/15 11:44:58;;;;;;;3.10;3.00;;;;;;;-6.15;77.54;102640.03;6146861;28;20380;-73
2021/01/15 11:48:01;;;;;;;3.60;3.30;;;;;;;-6.10;77.13;102643.38;6145890;28;20216;-73
2021/01/15 11:51:09;;;;;;;2.77;2.57;;;;;;;-6.11;77.41;102636.34;6166067;28;20202;-73
2021/01/15 11:54:12;;;;;;;3.27;2.97;;;;;;;-5.90;77.07;102640.69;6170303;28;20202;-73
2021/01/15 11:57:16;;;;;;;3.10;3.00;;;;;;;-6.15;77.21;102629.41;6159603;28;20198;-76
2021/01/15 12:00:21;;;;;;;3.10;2.90;;;;;;;-5.96;75.97;102646.31;6171365;28;20257;-74
2021/01/15 12:03:28;;;;;;;3.43;2.93;;;;;;;-6.15;77.08;102663.97;6165946;28;20238;-74
2021/01/15 12:06:33;;;;;;;3.00;2.80;;;;;;;-6.07;76.97;102653.88;6171164;28;20576;-73
2021/01/15 12:09:36;;;;;;;3.03;2.80;;;;;;;-6.20;78.22;102657.97;6166912;28;20213;-76
2021/01/15 12:12:40;;;;;;;3.00;2.90;;;;;;;-6.54;78.06;102661.19;6159455;28;20207;-75
2021/01/15 12:15:48;;;;;;;2.97;2.87;;;;;;;-6.45;80.39;102653.72;6167690;28;20199;-73
2021/01/15 12:18:51;;;;;;;3.20;2.93;;;;;;;-6.70;80.33;102642.38;6157677;28;20243;-74
2021/01/15 12:21:56;;;;;;;2.93;2.83;;;;;;;-6.39;79.60;102648.13;6165164;28;20701;-73
2021/01/15 12:24:59;;;;;;;3.17;2.93;;;;;;;-6.37;79.34;102643.63;6161045;28;20197;-73
2021/01/15 12:28:03;;;;;;;3.20;3.00;;;;;;;-6.25;79.60;102646.69;6171606;28;20194;-74
2021/01/15 12:31:06;;;;;;;3.37;2.93;;;;;;;-6.21;79.72;102632.38;6164319;28;20210;-74
2021/01/15 12:34:10;;;;;;;3.30;2.87;;;;;;;-6.10;79.93;102648.69;6149310;28;20290;-75
2021/01/15 12:37:23;;;;;;;2.60;2.50;;;;;;;-6.04;79.81;102640.44;6161591;28;20238;-73
2021/01/15 12:40:26;;;;;;;3.23;2.97;;;;;;;-6.06;80.12;102655.59;6163199;28;20242;-77
2021/01/15 12:43:29;;;;;;;3.73;3.00;;;;;;;-6.02;80.46;102646.56;6164265;28;20195;-77
2021/01/15 12:46:33;;;;;;;3.37;3.07;;;;;;;-6.33;82.48;102640.84;6156877;28;20198;-75
2021/01/15 12:49:37;;;;;;;2.70;2.50;;;;;;;-6.44;82.71;102639.50;6154693;28;20776;-74
2021/01/15 12:52:42;;;;;;;3.10;2.90;;;;;;;-6.37;83.79;102630.34;6170557;28;20197;-75
2021/01/15 12:55:45;;;;;;;2.97;2.77;;;;;;;-6.66;84.70;102633.38;6156280;28;20206;-75
2021/01/15 12:58:48;;;;;;;3.13;2.60;;;;;;;-6.57;84.65;102601.13;6178290;28;20204;-76
2021/01/15 13:01:52;;;;;;;3.07;2.87;;;;;;;-6.36;84.80;102621.44;6156899;28;20275;-76
2021/01/15 13:04:55;;;;;;;3.13;2.93;;;;;;;-6.23;84.54;102615.59;6159833;28;20284;-75
2021/01/15 13:07:59;;;;;;;2.77;2.67;;;;;;;-6.16;85.58;102619.75;6170224;28;20191;-79
2021/01/15 13:11:03;;;;;;;3.20;3.00;;;;;;;-6.09;87.37;102613.22;6161580;28;20214;-75
2021/01/15 13:14:06;;;;;;;3.60;2.93;;;;;;;-6.10;87.14;102622.09;6170875;28;20206;-76
2021/01/15 13:17:13;;;;;;;3.10;2.90;;;;;;;-6.01;89.34;102621.72;6167240;28;20205;-77
2021/01/15 13:20:18;;;;;;;4.00;3.20;;;;;;;-6.01;90.13;102617.25;6165233;28;20298;-74
2021/01/15 13:23:22;;;;;;;2.70;2.60;;;;;;;-6.16;88.66;102627.72;6166879;28;20217;-74
2021/01/15 13:26:38;;;;;;;4.23;3.23;;;;;;;-6.13;88.96;102616.91;6154819;28;20249;-73
2021/01/15 13:29:41;;;;;;;2.90;2.80;;;;;;;-5.96;88.57;102625.03;6153414;28;20203;-73
2021/01/15 13:32:45;;;;;;;2.97;2.80;;;;;;;-6.06;89.18;102623.72;6155460;28;20206;-74
2021/01/15 13:35:48;;;;;;;3.53;3.30;;;;;;;-6.04;87.59;102621.84;6167156;28;20228;-75
2021/01/15 13:38:53;;;;;;;3.33;3.23;;;;;;;-6.08;88.90;102620.25;6181575;28;20616;-75
2021/01/15 13:41:56;;;;;;;3.80;3.50;;;;;;;-6.09;87.10;102618.53;6167075;28;20221;-76
2021/01/15 13:45:00;;;;;;;3.50;3.20;;;;;;;-6.02;87.15;102609.34;6159961;28;20194;-74
2021/01/15 13:48:04;;;;;;;3.97;3.57;;;;;;;-6.11;87.16;102615.09;6163220;28;20284;-74
2021/01/15 13:51:14;;;;;;;3.30;3.17;;;;;;;-6.15;85.94;102619.66;6161016;28;20257;-75
2021/01/15 13:54:18;;;;;;;4.00;3.70;;;;;;;-6.27;86.18;102624.66;6167482;28;20236;-75
2021/01/15 13:57:22;;;;;;;3.33;3.13;;;;;;;-6.41;88.28;102623.44;6168855;28;20216;-74
2021/01/15 14:00:25;;;;;;;3.93;3.53;;;;;;;-6.21;89.80;102635.84;6151704;28;20789;-74
2021/01/15 14:03:30;;;;;;;4.00;3.53;;;;;;;-6.20;87.47;102620.78;6167759;28;20213;-74
2021/01/15 14:06:36;;;;;;;3.57;3.33;;;;;;;-6.08;85.75;102620.25;6162229;28;20273;-75
2021/01/15 14:09:41;;;;;;;3.50;3.30;;;;;;;-6.02;84.55;102625.28;6166636;28;20329;-75
2021/01/15 14:12:44;;;;;;;6.60;3.97;;;;;;;-6.04;83.99;102611.22;6156726;28;20597;-74
2021/01/15 14:15:47;;;;;;;4.30;4.00;;;;;;;-6.37;84.86;102622.38;6166143;28;20341;-74
2021/01/15 14:18:50;;;;;;;3.23;2.97;;;;;;;-6.28;84.80;102613.16;6155927;28;20677;-75
2021/01/15 14:21:55;;;;;;;3.43;3.20;;;;;;;-6.16;83.94;102625.91;6162015;28;20230;-74
2021/01/15 14:24:59;;;;;;;4.30;3.53;;;;;;;-6.27;85.19;102611.38;6160803;28;20201;-76